sensor_id;sensor_type;location;lat;lon;timestamp;temperature;humidity
3186;DHT22;1604;53.700;10.252;2023-12-07T00:00:40;0.30;99.90
3186;DHT22;1604;53.700;10.252;2023-12-07T00:03:42;0.30;99.90
3186;DHT22;1604;53.700;10.252;2023-12-07T00:06:44;0.30;99.90
3186;DHT22;1604;53.700;10.252;2023-12-07T00:09:46;0.30;99.90
3186;DHT22;1604;53.700;10.252;2023-12-07T00:12:48;0.30;99.90
3186;DHT22;1604;53.700;10.252;2023-12-07T00:15:52;0.30;99.90
3186;DHT22;1604;53.700;10.252;2023-12-07T00:18:54;0.30;99.90
3186;DHT22;1604;53.700;10.252;2023-12-07T00:21:56;0.30;99.90
3186;DHT22;1604;53.700;10.252;2023-12-07T00:24:58;0.30;99.90
3186;DHT22;1604;53.700;10.252;2023-12-07T00:28:01;0.30;99.90
3186;DHT22;1604;53.700;10.252;2023-12-07T00:31:05;0.30;99.90
3186;DHT22;1604;53.700;10.252;2023-12-07T00:34:08;0.30;99.90
3186;DHT22;1604;53.700;10.252;2023-12-07T00:37:10;0.30;99.90
3186;DHT22;1604;53.700;10.252;2023-12-07T00:40:12;0.30;99.90
3186;DHT22;1604;53.700;10.252;2023-12-07T00:43:15;0.30;99.90
3186;DHT22;1604;53.700;10.252;2023-12-07T00:46:18;0.30;99.90
3186;DHT22;1604;53.700;10.252;2023-12-07T00:49:20;0.30;99.90
3186;DHT22;1604;53.700;10.252;2023-12-07T00:52:22;0.30;99.90
3186;DHT22;1604;53.700;10.252;2023-12-07T00:55:24;0.30;99.90
3186;DHT22;1604;53.700;10.252;2023-12-07T00:58:26;0.30;99.90
3186;DHT22;1604;53.700;10.252;2023-12-07T01:01:30;0.30;99.90
3186;DHT22;1604;53.700;10.252;2023-12-07T01:04:33;0.30;99.90
3186;DHT22;1604;53.700;10.252;2023-12-07T01:07:35;0.30;99.90
3186;DHT22;1604;53.700;10.252;2023-12-07T01:10:37;0.30;99.90
3186;DHT22;1604;53.700;10.252;2023-12-07T01:13:39;0.30;99.90
3186;DHT22;1604;53.700;10.252;2023-12-07T01:16:44;0.30;99.90
3186;DHT22;1604;53.700;10.252;2023-12-07T01:19:46;0.30;99.90
3186;DHT22;1604;53.700;10.252;2023-12-07T01:22:49;0.30;99.90
3186;DHT22;1604;53.700;10.252;2023-12-07T01:25:51;0.30;99.90
3186;DHT22;1604;53.700;10.252;2023-12-07T01:28:53;0.30;99.90
3186;DHT22;1604;53.700;10.252;2023-12-07T01:31:57;0.30;99.90
3186;DHT22;1604;53.700;10.252;2023-12-07T01:34:59;0.30;99.90
3186;DHT22;1604;53.700;10.252;2023-12-07T01:38:01;0.40;99.90
3186;DHT22;1604;53.700;10.252;2023-12-07T01:41:04;0.30;99.90
3186;DHT22;1604;53.700;10.252;2023-12-07T01:44:06;0.40;99.90
3186;DHT22;1604;53.700;10.252;2023-12-07T01:47:10;0.40;99.90
3186;DHT22;1604;53.700;10.252;2023-12-07T01:50:13;0.40;99.90
3186;DHT22;1604;53.700;10.252;2023-12-07T01:53:16;0.40;99.90
3186;DHT22;1604;53.700;10.252;2023-12-07T01:56:19;0.40;99.90
3186;DHT22;1604;53.700;10.252;2023-12-07T01:59:23;0.40;99.90
3186;DHT22;1604;53.700;10.252;2023-12-07T02:02:27;0.40;99.90
3186;DHT22;1604;53.700;10.252;2023-12-07T02:05:29;0.40;99.90
3186;DHT22;1604;53.700;10.252;2023-12-07T02:08:34;0.40;99.90
3186;DHT22;1604;53.700;10.252;2023-12-07T02:11:36;0.40;99.90
3186;DHT22;1604;53.700;10.252;2023-12-07T02:14:38;0.40;99.90
3186;DHT22;1604;53.700;10.252;2023-12-07T02:17:49;0.40;99.90
3186;DHT22;1604;53.700;10.252;2023-12-07T02:20:58;0.40;99.90
3186;DHT22;1604;53.700;10.252;2023-12-07T02:24:03;0.40;99.90
3186;DHT22;1604;53.700;10.252;2023-12-07T02:27:08;0.40;99.90
3186;DHT22;1604;53.700;10.252;2023-12-07T02:30:11;0.40;99.90
3186;DHT22;1604;53.700;10.252;2023-12-07T02:33:14;0.40;99.90
3186;DHT22;1604;53.700;10.252;2023-12-07T02:36:19;0.40;99.90
3186;DHT22;1604;53.700;10.252;2023-12-07T02:39:23;0.40;99.90
3186;DHT22;1604;53.700;10.252;2023-12-07T02:42:27;0.40;99.90
3186;DHT22;1604;53.700;10.252;2023-12-07T02:45:31;0.40;99.90
3186;DHT22;1604;53.700;10.252;2023-12-07T02:48:33;0.40;99.90
3186;DHT22;1604;53.700;10.252;2023-12-07T02:51:35;0.40;99.90
3186;DHT22;1604;53.700;10.252;2023-12-07T02:54:37;0.40;99.90
3186;DHT22;1604;53.700;10.252;2023-12-07T02:57:41;0.40;99.90
3186;DHT22;1604;53.700;10.252;2023-12-07T03:00:43;0.40;99.90
3186;DHT22;1604;53.700;10.252;2023-12-07T03:03:45;0.40;99.90
3186;DHT22;1604;53.700;10.252;2023-12-07T03:06:47;0.40;99.90
3186;DHT22;1604;53.700;10.252;2023-12-07T03:09:49;0.40;99.90
3186;DHT22;1604;53.700;10.252;2023-12-07T03:12:53;0.40;99.90
3186;DHT22;1604;53.700;10.252;2023-12-07T03:15:55;0.40;99.90
3186;DHT22;1604;53.700;10.252;2023-12-07T03:18:57;0.40;99.90
3186;DHT22;1604;53.700;10.252;2023-12-07T03:21:59;0.40;99.90
3186;DHT22;1604;53.700;10.252;2023-12-07T03:25:01;0.50;99.90
3186;DHT22;1604;53.700;10.252;2023-12-07T03:28:04;0.50;99.90
3186;DHT22;1604;53.700;10.252;2023-12-07T03:31:07;0.40;99.90
3186;DHT22;1604;53.700;10.252;2023-12-07T03:34:09;0.40;99.90
3186;DHT22;1604;53.700;10.252;2023-12-07T03:37:12;0.50;99.90
3186;DHT22;1604;53.700;10.252;2023-12-07T03:40:14;0.40;99.90
3186;DHT22;1604;53.700;10.252;2023-12-07T03:43:19;0.40;99.90
3186;DHT22;1604;53.700;10.252;2023-12-07T03:46:21;0.50;99.90
3186;DHT22;1604;53.700;10.252;2023-12-07T03:49:24;0.50;99.90
3186;DHT22;1604;53.700;10.252;2023-12-07T03:52:26;0.50;99.90
3186;DHT22;1604;53.700;10.252;2023-12-07T03:55:28;0.50;99.90
3186;DHT22;1604;53.700;10.252;2023-12-07T03:58:31;0.50;99.90
3186;DHT22;1604;53.700;10.252;2023-12-07T04:01:33;0.50;99.90
3186;DHT22;1604;53.700;10.252;2023-12-07T04:04:35;0.50;99.90
3186;DHT22;1604;53.700;10.252;2023-12-07T04:07:39;0.40;99.90
3186;DHT22;1604;53.700;10.252;2023-12-07T04:10:41;0.50;99.90
3186;DHT22;1604;53.700;10.252;2023-12-07T04:13:45;0.50;99.90
3186;DHT22;1604;53.700;10.252;2023-12-07T04:16:47;0.50;99.90
3186;DHT22;1604;53.700;10.252;2023-12-07T04:19:49;0.50;99.90
3186;DHT22;1604;53.700;10.252;2023-12-07T04:22:51;0.50;99.90
3186;DHT22;1604;53.700;10.252;2023-12-07T04:25:53;0.50;99.90
3186;DHT22;1604;53.700;10.252;2023-12-07T04:28:56;0.50;99.90
3186;DHT22;1604;53.700;10.252;2023-12-07T04:31:58;0.50;99.90
3186;DHT22;1604;53.700;10.252;2023-12-07T04:35:00;0.50;99.90
3186;DHT22;1604;53.700;10.252;2023-12-07T04:38:02;0.50;99.90
3186;DHT22;1604;53.700;10.252;2023-12-07T04:41:05;0.50;99.90
3186;DHT22;1604;53.700;10.252;2023-12-07T04:44:08;0.50;99.90
3186;DHT22;1604;53.700;10.252;2023-12-07T04:47:10;0.50;99.90
3186;DHT22;1604;53.700;10.252;2023-12-07T04:50:13;0.50;99.90
3186;DHT22;1604;53.700;10.252;2023-12-07T04:53:15;0.50;99.90
3186;DHT22;1604;53.700;10.252;2023-12-07T04:56:16;0.50;99.90
3186;DHT22;1604;53.700;10.252;2023-12-07T04:59:20;0.50;99.90
3186;DHT22;1604;53.700;10.252;2023-12-07T05:02:22;0.50;99.90
3186;DHT22;1604;53.700;10.252;2023-12-07T05:05:24;0.50;99.90
3186;DHT22;1604;53.700;10.252;2023-12-07T05:08:26;0.50;99.90
3186;DHT22;1604;53.700;10.252;2023-12-07T05:11:28;0.50;99.90
3186;DHT22;1604;53.700;10.252;2023-12-07T05:14:32;0.50;99.90
3186;DHT22;1604;53.700;10.252;2023-12-07T05:17:35;0.50;99.90
3186;DHT22;1604;53.700;10.252;2023-12-07T05:20:37;0.50;99.90
3186;DHT22;1604;53.700;10.252;2023-12-07T05:23:39;0.50;99.90
3186;DHT22;1604;53.700;10.252;2023-12-07T05:26:41;0.50;99.90
3186;DHT22;1604;53.700;10.252;2023-12-07T05:29:45;0.50;99.90
3186;DHT22;1604;53.700;10.252;2023-12-07T05:32:46;0.50;99.90
3186;DHT22;1604;53.700;10.252;2023-12-07T05:35:49;0.50;99.90
3186;DHT22;1604;53.700;10.252;2023-12-07T05:38:50;0.50;99.90
3186;DHT22;1604;53.700;10.252;2023-12-07T05:41:53;0.50;99.90
3186;DHT22;1604;53.700;10.252;2023-12-07T05:44:56;0.60;99.90
3186;DHT22;1604;53.700;10.252;2023-12-07T05:47:58;0.50;99.90
3186;DHT22;1604;53.700;10.252;2023-12-07T05:51:01;0.50;99.90
3186;DHT22;1604;53.700;10.252;2023-12-07T05:54:04;0.60;99.90
3186;DHT22;1604;53.700;10.252;2023-12-07T05:57:06;0.50;99.90
3186;DHT22;1604;53.700;10.252;2023-12-07T06:00:10;0.50;99.90
3186;DHT22;1604;53.700;10.252;2023-12-07T06:03:13;0.50;99.90
3186;DHT22;1604;53.700;10.252;2023-12-07T06:06:16;0.60;99.90
3186;DHT22;1604;53.700;10.252;2023-12-07T06:09:18;0.50;99.90
3186;DHT22;1604;53.700;10.252;2023-12-07T06:12:20;0.60;99.90
3186;DHT22;1604;53.700;10.252;2023-12-07T06:15:24;0.60;99.90
3186;DHT22;1604;53.700;10.252;2023-12-07T06:18:25;0.60;99.90
3186;DHT22;1604;53.700;10.252;2023-12-07T06:21:28;0.60;99.90
3186;DHT22;1604;53.700;10.252;2023-12-07T06:24:30;0.60;99.90
3186;DHT22;1604;53.700;10.252;2023-12-07T06:27:33;0.60;99.90
3186;DHT22;1604;53.700;10.252;2023-12-07T06:30:37;0.60;99.90
3186;DHT22;1604;53.700;10.252;2023-12-07T06:33:40;0.60;99.90
3186;DHT22;1604;53.700;10.252;2023-12-07T06:36:42;0.60;99.90
3186;DHT22;1604;53.700;10.252;2023-12-07T06:39:44;0.60;99.90
3186;DHT22;1604;53.700;10.252;2023-12-07T06:42:46;0.60;99.90
3186;DHT22;1604;53.700;10.252;2023-12-07T06:45:50;0.60;99.90
3186;DHT22;1604;53.700;10.252;2023-12-07T06:48:52;0.60;99.90
3186;DHT22;1604;53.700;10.252;2023-12-07T06:51:54;0.60;99.90
3186;DHT22;1604;53.700;10.252;2023-12-07T06:54:56;0.60;99.90
3186;DHT22;1604;53.700;10.252;2023-12-07T06:57:58;0.60;99.90
3186;DHT22;1604;53.700;10.252;2023-12-07T07:01:01;0.60;99.90
3186;DHT22;1604;53.700;10.252;2023-12-07T07:04:03;0.60;99.90
3186;DHT22;1604;53.700;10.252;2023-12-07T07:07:05;0.60;99.90
3186;DHT22;1604;53.700;10.252;2023-12-07T07:10:08;0.60;99.90
3186;DHT22;1604;53.700;10.252;2023-12-07T07:13:12;0.60;99.90
3186;DHT22;1604;53.700;10.252;2023-12-07T07:16:18;0.60;99.90
3186;DHT22;1604;53.700;10.252;2023-12-07T07:19:20;0.60;99.90
3186;DHT22;1604;53.700;10.252;2023-12-07T07:22:22;0.60;99.90
3186;DHT22;1604;53.700;10.252;2023-12-07T07:25:24;0.60;99.90
3186;DHT22;1604;53.700;10.252;2023-12-07T07:28:26;0.60;99.90
3186;DHT22;1604;53.700;10.252;2023-12-07T07:31:29;0.60;99.90
3186;DHT22;1604;53.700;10.252;2023-12-07T07:34:31;0.60;99.90
3186;DHT22;1604;53.700;10.252;2023-12-07T07:37:33;0.60;99.90
3186;DHT22;1604;53.700;10.252;2023-12-07T07:40:35;0.60;99.90
3186;DHT22;1604;53.700;10.252;2023-12-07T07:43:37;0.60;99.90
3186;DHT22;1604;53.700;10.252;2023-12-07T07:46:41;0.60;99.90
3186;DHT22;1604;53.700;10.252;2023-12-07T07:49:43;0.60;99.90
3186;DHT22;1604;53.700;10.252;2023-12-07T07:52:45;0.60;99.90
3186;DHT22;1604;53.700;10.252;2023-12-07T07:55:47;0.60;99.90
3186;DHT22;1604;53.700;10.252;2023-12-07T07:58:49;0.60;99.90
3186;DHT22;1604;53.700;10.252;2023-12-07T08:01:52;0.60;99.90
3186;DHT22;1604;53.700;10.252;2023-12-07T08:04:54;0.60;99.90
3186;DHT22;1604;53.700;10.252;2023-12-07T08:07:56;0.60;99.90
3186;DHT22;1604;53.700;10.252;2023-12-07T08:10:58;0.60;99.90
3186;DHT22;1604;53.700;10.252;2023-12-07T08:14:01;0.70;99.90
3186;DHT22;1604;53.700;10.252;2023-12-07T08:17:04;0.70;99.90
3186;DHT22;1604;53.700;10.252;2023-12-07T08:20:07;0.70;99.90
3186;DHT22;1604;53.700;10.252;2023-12-07T08:23:10;0.70;99.90
3186;DHT22;1604;53.700;10.252;2023-12-07T08:26:12;0.70;99.90
3186;DHT22;1604;53.700;10.252;2023-12-07T08:29:15;0.70;99.90
3186;DHT22;1604;53.700;10.252;2023-12-07T08:32:18;0.70;99.90
3186;DHT22;1604;53.700;10.252;2023-12-07T08:35:20;0.70;99.90
3186;DHT22;1604;53.700;10.252;2023-12-07T08:38:22;0.70;99.90
3186;DHT22;1604;53.700;10.252;2023-12-07T08:41:24;0.70;99.90
3186;DHT22;1604;53.700;10.252;2023-12-07T08:44:26;0.70;99.90
3186;DHT22;1604;53.700;10.252;2023-12-07T08:47:29;0.70;99.90
3186;DHT22;1604;53.700;10.252;2023-12-07T08:50:32;0.70;99.90
3186;DHT22;1604;53.700;10.252;2023-12-07T08:53:34;0.70;99.90
3186;DHT22;1604;53.700;10.252;2023-12-07T08:56:36;0.70;99.90
3186;DHT22;1604;53.700;10.252;2023-12-07T08:59:38;0.70;99.90
3186;DHT22;1604;53.700;10.252;2023-12-07T09:02:41;0.80;99.90
3186;DHT22;1604;53.700;10.252;2023-12-07T09:05:43;0.80;99.90
3186;DHT22;1604;53.700;10.252;2023-12-07T09:08:45;0.80;99.90
3186;DHT22;1604;53.700;10.252;2023-12-07T09:11:47;0.80;99.90
3186;DHT22;1604;53.700;10.252;2023-12-07T09:14:49;0.80;99.90
3186;DHT22;1604;53.700;10.252;2023-12-07T09:17:52;0.80;99.90
3186;DHT22;1604;53.700;10.252;2023-12-07T09:20:55;0.80;99.90
3186;DHT22;1604;53.700;10.252;2023-12-07T09:23:56;0.80;99.90
3186;DHT22;1604;53.700;10.252;2023-12-07T09:26:58;0.80;99.90
3186;DHT22;1604;53.700;10.252;2023-12-07T09:30:01;0.90;99.90
3186;DHT22;1604;53.700;10.252;2023-12-07T09:33:04;0.90;99.90
3186;DHT22;1604;53.700;10.252;2023-12-07T09:36:07;0.90;99.90
3186;DHT22;1604;53.700;10.252;2023-12-07T09:39:09;0.90;99.90
3186;DHT22;1604;53.700;10.252;2023-12-07T09:42:11;0.90;99.90
3186;DHT22;1604;53.700;10.252;2023-12-07T09:45:14;0.90;99.90
3186;DHT22;1604;53.700;10.252;2023-12-07T09:48:19;1.00;99.90
3186;DHT22;1604;53.700;10.252;2023-12-07T09:51:22;1.00;99.90
3186;DHT22;1604;53.700;10.252;2023-12-07T09:54:26;1.00;99.90
3186;DHT22;1604;53.700;10.252;2023-12-07T09:57:28;1.00;99.90
3186;DHT22;1604;53.700;10.252;2023-12-07T10:00:30;1.10;99.90
3186;DHT22;1604;53.700;10.252;2023-12-07T10:03:35;1.10;99.90
3186;DHT22;1604;53.700;10.252;2023-12-07T10:06:42;1.10;99.90
3186;DHT22;1604;53.700;10.252;2023-12-07T10:09:45;1.10;99.90
3186;DHT22;1604;53.700;10.252;2023-12-07T10:12:48;1.20;99.90
3186;DHT22;1604;53.700;10.252;2023-12-07T10:16:05;1.20;99.90
3186;DHT22;1604;53.700;10.252;2023-12-07T10:19:15;1.20;99.90
3186;DHT22;1604;53.700;10.252;2023-12-07T10:22:19;1.20;99.90
3186;DHT22;1604;53.700;10.252;2023-12-07T10:25:21;1.20;99.90
3186;DHT22;1604;53.700;10.252;2023-12-07T10:28:23;1.20;99.90
3186;DHT22;1604;53.700;10.252;2023-12-07T10:31:26;1.20;99.90
3186;DHT22;1604;53.700;10.252;2023-12-07T10:34:29;1.20;99.90
3186;DHT22;1604;53.700;10.252;2023-12-07T10:37:32;1.20;99.90
3186;DHT22;1604;53.700;10.252;2023-12-07T10:40:34;1.20;99.90
3186;DHT22;1604;53.700;10.252;2023-12-07T10:43:38;1.20;99.90
3186;DHT22;1604;53.700;10.252;2023-12-07T10:46:44;1.20;99.90
3186;DHT22;1604;53.700;10.252;2023-12-07T10:49:52;1.20;99.90
3186;DHT22;1604;53.700;10.252;2023-12-07T10:52:57;1.30;99.90
3186;DHT22;1604;53.700;10.252;2023-12-07T10:56:01;1.30;99.90
3186;DHT22;1604;53.700;10.252;2023-12-07T10:59:06;1.30;99.90
3186;DHT22;1604;53.700;10.252;2023-12-07T11:02:13;1.40;99.90
3186;DHT22;1604;53.700;10.252;2023-12-07T11:05:17;1.40;99.90
3186;DHT22;1604;53.700;10.252;2023-12-07T11:08:24;1.40;99.90
3186;DHT22;1604;53.700;10.252;2023-12-07T11:11:31;1.40;99.90
3186;DHT22;1604;53.700;10.252;2023-12-07T11:14:35;1.40;99.90
3186;DHT22;1604;53.700;10.252;2023-12-07T11:17:54;1.40;99.90
3186;DHT22;1604;53.700;10.252;2023-12-07T11:20:59;1.40;99.90
3186;DHT22;1604;53.700;10.252;2023-12-07T11:24:02;1.40;99.90
3186;DHT22;1604;53.700;10.252;2023-12-07T11:27:05;1.40;99.90
3186;DHT22;1604;53.700;10.252;2023-12-07T11:30:08;1.40;99.90
3186;DHT22;1604;53.700;10.252;2023-12-07T11:33:10;1.40;99.90
3186;DHT22;1604;53.700;10.252;2023-12-07T11:36:14;1.40;99.90
3186;DHT22;1604;53.700;10.252;2023-12-07T11:39:16;1.40;99.90
3186;DHT22;1604;53.700;10.252;2023-12-07T11:42:21;1.40;99.90
3186;DHT22;1604;53.700;10.252;2023-12-07T11:45:39;1.40;99.90
3186;DHT22;1604;53.700;10.252;2023-12-07T11:48:48;1.40;99.90
3186;DHT22;1604;53.700;10.252;2023-12-07T11:51:51;1.50;99.90
3186;DHT22;1604;53.700;10.252;2023-12-07T11:54:54;1.50;99.90
3186;DHT22;1604;53.700;10.252;2023-12-07T11:57:55;1.50;99.90
3186;DHT22;1604;53.700;10.252;2023-12-07T12:00:58;1.50;99.90
3186;DHT22;1604;53.700;10.252;2023-12-07T12:04:00;1.50;99.90
3186;DHT22;1604;53.700;10.252;2023-12-07T12:07:04;1.50;99.90
3186;DHT22;1604;53.700;10.252;2023-12-07T12:10:07;1.50;99.90
3186;DHT22;1604;53.700;10.252;2023-12-07T12:13:09;1.50;99.90
3186;DHT22;1604;53.700;10.252;2023-12-07T12:16:11;1.50;99.90
3186;DHT22;1604;53.700;10.252;2023-12-07T12:19:13;1.50;99.90
3186;DHT22;1604;53.700;10.252;2023-12-07T12:22:17;1.50;99.90
3186;DHT22;1604;53.700;10.252;2023-12-07T12:25:19;1.50;99.90
3186;DHT22;1604;53.700;10.252;2023-12-07T12:28:23;1.50;99.90
3186;DHT22;1604;53.700;10.252;2023-12-07T12:31:25;1.60;99.90
3186;DHT22;1604;53.700;10.252;2023-12-07T12:34:27;1.60;99.90
3186;DHT22;1604;53.700;10.252;2023-12-07T12:37:32;1.50;99.90
3186;DHT22;1604;53.700;10.252;2023-12-07T12:40:34;1.50;99.90
3186;DHT22;1604;53.700;10.252;2023-12-07T12:43:36;1.50;99.90
3186;DHT22;1604;53.700;10.252;2023-12-07T12:46:38;1.50;99.90
3186;DHT22;1604;53.700;10.252;2023-12-07T12:49:41;1.50;99.90
3186;DHT22;1604;53.700;10.252;2023-12-07T12:52:46;1.50;99.90
3186;DHT22;1604;53.700;10.252;2023-12-07T12:55:48;1.60;99.90
3186;DHT22;1604;53.700;10.252;2023-12-07T12:58:51;1.60;99.90
3186;DHT22;1604;53.700;10.252;2023-12-07T13:01:53;1.50;99.90
3186;DHT22;1604;53.700;10.252;2023-12-07T13:04:56;1.60;99.90
3186;DHT22;1604;53.700;10.252;2023-12-07T13:07:59;1.60;99.90
3186;DHT22;1604;53.700;10.252;2023-12-07T13:11:02;1.60;99.90
3186;DHT22;1604;53.700;10.252;2023-12-07T13:14:04;1.60;99.90
3186;DHT22;1604;53.700;10.252;2023-12-07T13:17:07;1.60;99.90
3186;DHT22;1604;53.700;10.252;2023-12-07T13:20:10;1.50;99.90
3186;DHT22;1604;53.700;10.252;2023-12-07T13:23:15;1.50;99.90
3186;DHT22;1604;53.700;10.252;2023-12-07T13:26:19;1.50;99.90
3186;DHT22;1604;53.700;10.252;2023-12-07T13:29:21;1.50;99.90
3186;DHT22;1604;53.700;10.252;2023-12-07T13:32:24;1.50;99.90
3186;DHT22;1604;53.700;10.252;2023-12-07T13:35:26;1.50;99.90
3186;DHT22;1604;53.700;10.252;2023-12-07T13:38:29;1.50;99.90
3186;DHT22;1604;53.700;10.252;2023-12-07T13:41:31;1.50;99.90
3186;DHT22;1604;53.700;10.252;2023-12-07T13:44:34;1.50;99.90
3186;DHT22;1604;53.700;10.252;2023-12-07T13:47:36;1.50;99.90
3186;DHT22;1604;53.700;10.252;2023-12-07T13:50:39;1.50;99.90
3186;DHT22;1604;53.700;10.252;2023-12-07T13:53:43;1.50;99.90
3186;DHT22;1604;53.700;10.252;2023-12-07T13:56:45;1.50;99.90
3186;DHT22;1604;53.700;10.252;2023-12-07T13:59:48;1.50;99.90
3186;DHT22;1604;53.700;10.252;2023-12-07T14:02:51;1.50;99.90
3186;DHT22;1604;53.700;10.252;2023-12-07T14:05:53;1.50;99.90
3186;DHT22;1604;53.700;10.252;2023-12-07T14:08:56;1.50;99.90
3186;DHT22;1604;53.700;10.252;2023-12-07T14:11:58;1.40;99.90
3186;DHT22;1604;53.700;10.252;2023-12-07T14:15:00;1.40;99.90
3186;DHT22;1604;53.700;10.252;2023-12-07T14:18:03;1.40;99.90
3186;DHT22;1604;53.700;10.252;2023-12-07T14:21:06;1.40;99.90
3186;DHT22;1604;53.700;10.252;2023-12-07T14:24:10;1.40;99.90
3186;DHT22;1604;53.700;10.252;2023-12-07T14:27:12;1.30;99.90
3186;DHT22;1604;53.700;10.252;2023-12-07T14:30:17;1.30;99.90
3186;DHT22;1604;53.700;10.252;2023-12-07T14:33:19;1.30;99.90
3186;DHT22;1604;53.700;10.252;2023-12-07T14:36:21;1.30;99.90
3186;DHT22;1604;53.700;10.252;2023-12-07T14:39:24;1.30;99.90
3186;DHT22;1604;53.700;10.252;2023-12-07T14:42:26;1.20;99.90
3186;DHT22;1604;53.700;10.252;2023-12-07T14:45:28;1.20;99.90
3186;DHT22;1604;53.700;10.252;2023-12-07T14:48:30;1.20;99.90
3186;DHT22;1604;53.700;10.252;2023-12-07T14:51:33;1.20;99.90
3186;DHT22;1604;53.700;10.252;2023-12-07T14:54:37;1.20;99.90
3186;DHT22;1604;53.700;10.252;2023-12-07T14:57:40;1.10;99.90
3186;DHT22;1604;53.700;10.252;2023-12-07T15:00:42;1.10;99.90
3186;DHT22;1604;53.700;10.252;2023-12-07T15:03:43;1.10;99.90
3186;DHT22;1604;53.700;10.252;2023-12-07T15:06:45;1.10;99.90
3186;DHT22;1604;53.700;10.252;2023-12-07T15:09:49;1.10;99.90
3186;DHT22;1604;53.700;10.252;2023-12-07T15:12:52;1.10;99.90
3186;DHT22;1604;53.700;10.252;2023-12-07T15:15:54;1.10;99.90
3186;DHT22;1604;53.700;10.252;2023-12-07T15:18:56;1.10;99.90
3186;DHT22;1604;53.700;10.252;2023-12-07T15:21:58;1.10;99.90
3186;DHT22;1604;53.700;10.252;2023-12-07T15:25:01;1.10;99.90
3186;DHT22;1604;53.700;10.252;2023-12-07T15:28:05;1.10;99.90
3186;DHT22;1604;53.700;10.252;2023-12-07T15:31:11;1.10;99.90
3186;DHT22;1604;53.700;10.252;2023-12-07T15:34:13;1.10;99.90
3186;DHT22;1604;53.700;10.252;2023-12-07T15:37:15;1.10;99.90
3186;DHT22;1604;53.700;10.252;2023-12-07T15:40:19;1.00;99.90
3186;DHT22;1604;53.700;10.252;2023-12-07T15:43:22;1.10;99.90
3186;DHT22;1604;53.700;10.252;2023-12-07T15:46:24;1.00;99.90
3186;DHT22;1604;53.700;10.252;2023-12-07T15:49:26;1.00;99.90
3186;DHT22;1604;53.700;10.252;2023-12-07T15:52:28;1.00;99.90
3186;DHT22;1604;53.700;10.252;2023-12-07T15:55:31;1.00;99.90
3186;DHT22;1604;53.700;10.252;2023-12-07T15:58:33;1.00;99.90
3186;DHT22;1604;53.700;10.252;2023-12-07T16:01:35;1.00;99.90
3186;DHT22;1604;53.700;10.252;2023-12-07T16:04:38;1.00;99.90
3186;DHT22;1604;53.700;10.252;2023-12-07T16:07:40;1.00;99.90
3186;DHT22;1604;53.700;10.252;2023-12-07T16:10:43;1.00;99.90
3186;DHT22;1604;53.700;10.252;2023-12-07T16:13:45;1.00;99.90
3186;DHT22;1604;53.700;10.252;2023-12-07T16:16:47;1.00;99.90
3186;DHT22;1604;53.700;10.252;2023-12-07T16:19:49;1.00;99.90
3186;DHT22;1604;53.700;10.252;2023-12-07T16:22:51;1.00;99.90
3186;DHT22;1604;53.700;10.252;2023-12-07T16:25:55;1.00;99.90
3186;DHT22;1604;53.700;10.252;2023-12-07T16:28:58;1.00;99.90
3186;DHT22;1604;53.700;10.252;2023-12-07T16:32:00;1.00;99.90
3186;DHT22;1604;53.700;10.252;2023-12-07T16:35:02;1.00;99.90
3186;DHT22;1604;53.700;10.252;2023-12-07T16:38:04;1.00;99.90
3186;DHT22;1604;53.700;10.252;2023-12-07T16:41:08;1.00;99.90
3186;DHT22;1604;53.700;10.252;2023-12-07T16:44:10;1.00;99.90
3186;DHT22;1604;53.700;10.252;2023-12-07T16:47:12;1.00;99.90
3186;DHT22;1604;53.700;10.252;2023-12-07T16:50:14;1.00;99.90
3186;DHT22;1604;53.700;10.252;2023-12-07T16:53:16;1.00;99.90
3186;DHT22;1604;53.700;10.252;2023-12-07T16:56:20;1.00;99.90
3186;DHT22;1604;53.700;10.252;2023-12-07T16:59:22;1.00;99.90
3186;DHT22;1604;53.700;10.252;2023-12-07T17:02:24;1.00;99.90
3186;DHT22;1604;53.700;10.252;2023-12-07T17:05:27;1.00;99.90
3186;DHT22;1604;53.700;10.252;2023-12-07T17:08:29;1.00;99.90
3186;DHT22;1604;53.700;10.252;2023-12-07T17:11:32;1.00;99.90
3186;DHT22;1604;53.700;10.252;2023-12-07T17:14:34;1.00;99.90
3186;DHT22;1604;53.700;10.252;2023-12-07T17:17:38;1.00;99.90
3186;DHT22;1604;53.700;10.252;2023-12-07T17:20:40;0.90;99.90
3186;DHT22;1604;53.700;10.252;2023-12-07T17:23:42;0.90;99.90
3186;DHT22;1604;53.700;10.252;2023-12-07T17:26:46;0.90;99.90
3186;DHT22;1604;53.700;10.252;2023-12-07T17:29:48;0.90;99.90
3186;DHT22;1604;53.700;10.252;2023-12-07T17:32:50;0.90;99.90
3186;DHT22;1604;53.700;10.252;2023-12-07T17:35:52;0.90;99.90
3186;DHT22;1604;53.700;10.252;2023-12-07T17:38:54;1.00;99.90
3186;DHT22;1604;53.700;10.252;2023-12-07T17:41:58;0.90;99.90
3186;DHT22;1604;53.700;10.252;2023-12-07T17:45:00;0.90;99.90
3186;DHT22;1604;53.700;10.252;2023-12-07T17:48:03;1.00;99.90
3186;DHT22;1604;53.700;10.252;2023-12-07T17:51:11;1.00;99.90
3186;DHT22;1604;53.700;10.252;2023-12-07T17:54:14;0.90;99.90
3186;DHT22;1604;53.700;10.252;2023-12-07T17:57:19;0.90;99.90
3186;DHT22;1604;53.700;10.252;2023-12-07T18:00:21;1.00;99.90
3186;DHT22;1604;53.700;10.252;2023-12-07T18:03:23;1.00;99.90
3186;DHT22;1604;53.700;10.252;2023-12-07T18:06:25;1.00;99.90
3186;DHT22;1604;53.700;10.252;2023-12-07T18:09:28;1.00;99.90
3186;DHT22;1604;53.700;10.252;2023-12-07T18:12:32;1.00;99.90
3186;DHT22;1604;53.700;10.252;2023-12-07T18:15:34;1.00;99.90
3186;DHT22;1604;53.700;10.252;2023-12-07T18:18:36;0.90;99.90
3186;DHT22;1604;53.700;10.252;2023-12-07T18:21:38;1.00;99.90
3186;DHT22;1604;53.700;10.252;2023-12-07T18:24:41;1.00;99.90
3186;DHT22;1604;53.700;10.252;2023-12-07T18:27:45;1.00;99.90
3186;DHT22;1604;53.700;10.252;2023-12-07T18:30:47;0.90;99.90
3186;DHT22;1604;53.700;10.252;2023-12-07T18:33:49;0.90;99.90
3186;DHT22;1604;53.700;10.252;2023-12-07T18:36:51;0.90;99.90
3186;DHT22;1604;53.700;10.252;2023-12-07T18:39:53;0.90;99.90
3186;DHT22;1604;53.700;10.252;2023-12-07T18:42:57;0.90;99.90
3186;DHT22;1604;53.700;10.252;2023-12-07T18:46:00;1.00;99.90
3186;DHT22;1604;53.700;10.252;2023-12-07T18:49:05;0.90;99.90
3186;DHT22;1604;53.700;10.252;2023-12-07T18:52:07;0.90;99.90
3186;DHT22;1604;53.700;10.252;2023-12-07T18:55:09;0.90;99.90
3186;DHT22;1604;53.700;10.252;2023-12-07T18:58:12;0.90;99.90
3186;DHT22;1604;53.700;10.252;2023-12-07T19:01:14;0.90;99.90
3186;DHT22;1604;53.700;10.252;2023-12-07T19:04:17;0.90;99.90
3186;DHT22;1604;53.700;10.252;2023-12-07T19:07:19;0.90;99.90
3186;DHT22;1604;53.700;10.252;2023-12-07T19:10:21;0.90;99.90
3186;DHT22;1604;53.700;10.252;2023-12-07T19:13:24;0.90;99.90
3186;DHT22;1604;53.700;10.252;2023-12-07T19:16:26;0.90;99.90
3186;DHT22;1604;53.700;10.252;2023-12-07T19:19:28;0.90;99.90
3186;DHT22;1604;53.700;10.252;2023-12-07T19:22:31;0.90;99.90
3186;DHT22;1604;53.700;10.252;2023-12-07T19:25:34;0.80;99.90
3186;DHT22;1604;53.700;10.252;2023-12-07T19:28:37;0.80;99.90
3186;DHT22;1604;53.700;10.252;2023-12-07T19:31:40;0.80;99.90
3186;DHT22;1604;53.700;10.252;2023-12-07T19:34:43;0.80;99.90
3186;DHT22;1604;53.700;10.252;2023-12-07T19:37:45;0.80;99.90
3186;DHT22;1604;53.700;10.252;2023-12-07T19:40:47;0.80;99.90
3186;DHT22;1604;53.700;10.252;2023-12-07T19:43:50;0.80;99.90
3186;DHT22;1604;53.700;10.252;2023-12-07T19:46:52;0.80;99.90
3186;DHT22;1604;53.700;10.252;2023-12-07T19:49:54;0.80;99.90
3186;DHT22;1604;53.700;10.252;2023-12-07T19:52:57;0.80;99.90